createdAt,value
2019-02-25T00:00:28.296Z,18.10
2019-02-25T00:02:56.866Z,19.40
2019-02-25T00:05:25.545Z,20.30
2019-02-25T00:07:54.109Z,21.93
2019-02-25T00:10:22.916Z,21.80
2019-02-25T00:12:51.455Z,21.80
2019-02-25T00:15:39.723Z,22.00
2019-02-25T00:18:08.621Z,24.27
2019-02-25T00:20:37.182Z,21.83
2019-02-25T00:23:06.390Z,22.93
2019-02-25T00:25:35.050Z,19.77
2019-02-25T00:28:03.783Z,23.47
2019-02-25T00:30:32.418Z,21.83
2019-02-25T00:33:01.346Z,24.40
2019-02-25T00:35:29.891Z,21.30
2019-02-25T00:37:58.713Z,28.67
2019-02-25T00:40:27.749Z,23.50
2019-02-25T00:42:57.325Z,27.30
2019-02-25T00:45:25.885Z,26.30
2019-02-25T00:47:54.699Z,28.63
2019-02-25T00:50:23.823Z,27.40
2019-02-25T00:52:52.684Z,29.47
2019-02-25T00:55:21.240Z,28.43
2019-02-25T00:57:50.045Z,26.93
2019-02-25T01:00:25.633Z,31.47
2019-02-25T01:02:54.598Z,31.63
2019-02-25T01:05:23.904Z,25.37
2019-02-25T01:07:52.647Z,24.10
2019-02-25T01:10:21.283Z,27.50
2019-02-25T01:12:50.143Z,22.33
2019-02-25T01:15:18.874Z,28.13
2019-02-25T01:17:47.930Z,23.00
2019-02-25T01:20:17.435Z,23.53
2019-02-25T01:22:46.297Z,23.20
2019-02-25T01:25:16.208Z,26.90
2019-02-25T01:27:45.138Z,22.93
2019-02-25T01:30:16.014Z,25.13
2019-02-25T01:32:44.959Z,25.53
2019-02-25T01:35:14.450Z,21.80
2019-02-25T01:37:45.049Z,27.50
2019-02-25T01:40:14.653Z,16.77
2019-02-25T01:42:43.599Z,23.80
2019-02-25T01:45:19.799Z,22.77
2019-02-25T01:47:48.535Z,22.97
2019-02-25T01:50:17.096Z,25.63
2019-02-25T01:52:45.914Z,19.70
2019-02-25T01:55:14.641Z,28.10
2019-02-25T01:57:43.883Z,24.40
2019-02-25T02:00:17.712Z,27.93
2019-02-25T02:02:46.596Z,25.43
2019-02-25T02:05:15.428Z,20.93
2019-02-25T02:07:44.379Z,25.37
2019-02-25T02:10:16.756Z,22.20
2019-02-25T02:12:45.528Z,21.43
2019-02-25T02:15:20.137Z,25.90
2019-02-25T02:17:49.366Z,29.60
2019-02-25T02:20:18.468Z,41.07
2019-02-25T02:22:47.354Z,23.03
2019-02-25T02:25:16.341Z,19.10
2019-02-25T02:27:45.081Z,21.43
2019-02-25T02:30:19.603Z,19.90
2019-02-25T02:32:48.380Z,20.90
2019-02-25T02:35:17.006Z,24.30
2019-02-25T02:37:46.028Z,20.23
2019-02-25T02:40:15.111Z,26.77
2019-02-25T02:42:47.225Z,23.77
2019-02-25T02:45:21.564Z,18.33
2019-02-25T02:47:56.125Z,24.73
2019-02-25T02:50:25.625Z,19.93
2019-02-25T02:52:54.257Z,24.10
2019-02-25T02:55:22.853Z,26.73
2019-02-25T02:57:51.885Z,21.43
2019-02-25T03:00:20.783Z,21.80
2019-02-25T03:02:49.521Z,23.63
2019-02-25T03:05:18.846Z,18.63
2019-02-25T03:07:47.783Z,22.93
2019-02-25T03:10:18.170Z,22.60
2019-02-25T03:12:47.478Z,21.03
2019-02-25T03:15:17.974Z,19.93
2019-02-25T03:17:46.775Z,22.27
2019-02-25T03:20:15.340Z,18.13
2019-02-25T03:22:44.278Z,25.50
2019-02-25T03:25:16.007Z,22.73
2019-02-25T03:27:45.542Z,24.80
2019-02-25T03:30:17.265Z,24.20
2019-02-25T03:32:46.184Z,22.73
2019-02-25T03:35:14.982Z,21.93
2019-02-25T03:37:44.006Z,19.87
2019-02-25T03:40:17.500Z,16.50
2019-02-25T03:42:46.459Z,31.07
2019-02-25T03:45:17.162Z,21.40
2019-02-25T03:47:45.877Z,20.00
2019-02-25T03:50:15.283Z,22.83
2019-02-25T03:52:43.866Z,34.47
2019-02-25T03:55:14.796Z,25.23
2019-02-25T03:57:43.722Z,20.53
2019-02-25T04:00:15.587Z,23.13
2019-02-25T04:02:44.758Z,16.90
2019-02-25T04:05:13.314Z,20.80
2019-02-25T04:07:42.320Z,26.07
2019-02-25T04:10:12.816Z,16.90
2019-02-25T04:12:41.742Z,24.50
2019-02-25T04:15:16.864Z,21.27
2019-02-25T04:17:45.404Z,20.07
2019-02-25T04:20:18.462Z,20.90
2019-02-25T04:22:47.367Z,21.20
2019-02-25T04:25:15.920Z,25.03
2019-02-25T04:27:44.705Z,19.40
2019-02-25T04:30:16.775Z,21.93
2019-02-25T04:32:45.330Z,20.53
2019-02-25T04:35:14.661Z,18.87
2019-02-25T04:37:43.394Z,21.43
2019-02-25T04:40:15.718Z,16.23
2019-02-25T04:42:44.707Z,24.20
2019-02-25T04:45:20.905Z,22.17
2019-02-25T04:47:49.498Z,22.03
2019-02-25T04:50:18.190Z,22.73
2019-02-25T04:52:46.752Z,18.70
2019-02-25T04:55:16.440Z,18.33
2019-02-25T04:57:45.014Z,21.83
2019-02-25T05:00:15.853Z,18.97
2019-02-25T05:02:44.416Z,22.13
2019-02-25T05:05:13.441Z,26.60
2019-02-25T05:07:41.992Z,17.50
2019-02-25T05:10:13.461Z,20.90
2019-02-25T05:12:43.664Z,36.90
2019-02-25T05:15:14.327Z,18.13
2019-02-25T05:17:43.189Z,14.50
2019-02-25T05:20:12.089Z,20.50
2019-02-25T05:22:40.985Z,20.90
2019-02-25T05:25:11.288Z,17.50
2019-02-25T05:27:40.009Z,12.70
2019-02-25T05:30:12.168Z,16.20
2019-02-25T05:32:40.727Z,18.50
2019-02-25T05:35:11.638Z,16.73
2019-02-25T05:37:40.200Z,18.33
2019-02-25T05:40:17.348Z,20.77
2019-02-25T05:42:45.990Z,23.67
2019-02-25T05:45:15.520Z,20.97
2019-02-25T05:47:44.148Z,20.17
2019-02-25T05:50:15.895Z,18.80
2019-02-25T05:52:44.453Z,23.30
2019-02-25T05:55:16.751Z,24.70
2019-02-25T05:57:45.380Z,12.60
2019-02-25T06:00:18.108Z,23.40
2019-02-25T06:02:46.685Z,25.40
2019-02-25T06:05:15.680Z,18.37
2019-02-25T06:07:44.252Z,25.83
2019-02-25T06:10:14.154Z,20.60
2019-02-25T06:12:43.183Z,24.83
2019-02-25T06:15:14.946Z,20.47
2019-02-25T06:17:43.572Z,22.00
2019-02-25T06:20:18.852Z,29.37
2019-02-25T06:22:47.420Z,33.17
2019-02-25T06:25:17.894Z,45.87
2019-02-25T06:27:46.619Z,42.63
2019-02-25T06:30:20.152Z,28.30
2019-02-25T06:32:48.710Z,21.57
2019-02-25T06:35:17.547Z,21.87
2019-02-25T06:37:46.179Z,22.00
2019-02-25T06:40:19.805Z,27.30
2019-02-25T06:42:48.448Z,23.30
2019-02-25T06:45:25.471Z,25.43
2019-02-25T06:47:54.038Z,26.40
2019-02-25T06:50:22.846Z,28.63
2019-02-25T06:52:51.408Z,40.00
2019-02-25T06:55:19.992Z,22.20
2019-02-25T06:57:48.772Z,32.90
2019-02-25T07:00:18.876Z,36.90
2019-02-25T07:02:47.807Z,32.80
2019-02-25T07:05:34.517Z,32.57
2019-02-25T07:08:05.558Z,27.33
2019-02-25T07:10:53.806Z,32.70
2019-02-25T07:13:24.077Z,38.73
2019-02-25T07:15:57.312Z,23.20
2019-02-25T07:18:42.229Z,29.33
2019-02-25T07:21:12.542Z,21.63
2019-02-25T07:23:42.753Z,32.47
2019-02-25T07:26:13.156Z,24.20
2019-02-25T07:28:43.365Z,25.23
2019-02-25T07:31:14.426Z,38.67
2019-02-25T07:33:53.722Z,30.93
2019-02-25T07:36:30.025Z,24.20
2019-02-25T07:39:00.238Z,39.73
2019-02-25T07:41:30.664Z,45.57
2019-02-25T07:44:06.875Z,48.37
2019-02-25T07:46:40.131Z,31.40
2019-02-25T07:49:19.180Z,28.07
2019-02-25T07:51:49.575Z,21.60
2019-02-25T07:54:19.782Z,31.20
2019-02-25T07:57:08.249Z,33.43
2019-02-25T07:59:43.921Z,25.60
2019-02-25T08:02:20.675Z,29.23
2019-02-25T08:04:53.597Z,28.27
2019-02-25T08:07:24.093Z,41.30
2019-02-25T08:10:02.946Z,52.67
2019-02-25T08:12:33.324Z,47.33
2019-02-25T08:15:09.601Z,64.87
2019-02-25T08:17:49.152Z,65.67
2019-02-25T08:20:22.492Z,64.47
2019-02-25T08:22:52.684Z,39.47
2019-02-25T08:25:37.931Z,35.03
2019-02-25T08:28:08.452Z,44.67
2019-02-25T08:30:41.103Z,45.17
2019-02-25T08:33:20.164Z,55.60
2019-02-25T08:35:59.270Z,65.57
2019-02-25T08:38:30.032Z,48.20
2019-02-25T08:41:02.458Z,46.73
2019-02-25T08:43:35.596Z,40.30
2019-02-25T08:46:23.735Z,46.17
2019-02-25T08:48:57.131Z,49.70
2019-02-25T08:51:25.688Z,36.93
2019-02-25T08:53:54.512Z,43.40
2019-02-25T08:56:23.198Z,43.27
2019-02-25T08:58:52.081Z,29.13
2019-02-25T09:01:20.983Z,34.20
2019-02-25T09:03:50.151Z,32.83
2019-02-25T09:06:18.738Z,26.00
2019-02-25T09:08:47.650Z,22.07
2019-02-25T09:11:16.250Z,32.23
2019-02-25T09:13:45.010Z,29.90
2019-02-25T09:16:13.572Z,21.03
2019-02-25T09:18:42.391Z,22.93
2019-02-25T09:21:11.528Z,20.37
2019-02-25T09:23:40.156Z,17.47
2019-02-25T09:26:08.796Z,11.20
2019-02-25T09:28:41.008Z,18.50
2019-02-25T09:31:09.646Z,13.37
2019-02-25T09:33:38.380Z,13.30
2019-02-25T09:36:06.932Z,15.47
2019-02-25T09:38:35.966Z,17.83
2019-02-25T09:41:04.510Z,9.90
2019-02-25T09:43:33.344Z,10.80
2019-02-25T09:46:01.892Z,8.83
2019-02-25T09:48:33.572Z,12.37
2019-02-25T09:51:02.121Z,12.73
2019-02-25T09:53:30.944Z,7.20
2019-02-25T09:55:59.508Z,9.67
2019-02-25T09:58:28.332Z,17.50
2019-02-25T10:00:57.221Z,18.17
2019-02-25T10:03:26.302Z,11.33
2019-02-25T10:05:54.870Z,14.03
2019-02-25T10:08:23.870Z,10.10
2019-02-25T10:10:52.513Z,10.00
2019-02-25T10:13:21.249Z,10.70
2019-02-25T10:15:49.809Z,15.70
2019-02-25T10:18:18.623Z,10.17
2019-02-25T10:20:47.382Z,9.83
2019-02-25T10:23:16.162Z,11.40
2019-02-25T10:25:44.725Z,11.10
2019-02-25T10:28:13.573Z,14.13
2019-02-25T10:30:42.142Z,14.80
2019-02-25T10:33:10.948Z,12.23
2019-02-25T10:35:39.513Z,9.60
2019-02-25T10:38:08.388Z,10.90
2019-02-25T10:40:36.867Z,14.03
2019-02-25T10:43:05.686Z,8.17
2019-02-25T10:45:35.235Z,13.93
2019-02-25T10:48:05.321Z,9.10
2019-02-25T10:50:35.978Z,9.20
2019-02-25T10:53:04.556Z,12.60
2019-02-25T10:55:47.249Z,10.60
2019-02-25T10:58:15.930Z,12.67
2019-02-25T11:00:46.053Z,10.10
2019-02-25T11:03:15.319Z,8.83
2019-02-25T11:05:45.968Z,13.33
2019-02-25T11:08:16.170Z,8.87
2019-02-25T11:10:50.777Z,13.07
2019-02-25T11:13:20.371Z,14.00
2019-02-25T11:15:49.319Z,9.17
2019-02-25T11:18:19.816Z,11.57
2019-02-25T11:20:48.299Z,11.43
2019-02-25T11:23:19.288Z,10.37
2019-02-25T11:25:48.918Z,9.33
2019-02-25T11:28:25.561Z,8.50
2019-02-25T11:30:49.787Z,10.73
2019-02-25T11:33:18.061Z,18.33
2019-02-25T11:35:48.052Z,17.20
2019-02-25T11:38:17.124Z,16.20
2019-02-25T11:40:45.757Z,10.93
2019-02-25T11:43:18.253Z,12.80
2019-02-25T11:45:46.047Z,14.57
2019-02-25T11:48:14.669Z,12.07
2019-02-25T11:50:44.810Z,13.70
2019-02-25T11:53:13.573Z,12.33
2019-02-25T11:55:42.416Z,11.10
2019-02-25T11:58:10.981Z,12.10
2019-02-25T12:00:40.205Z,12.90
2019-02-25T12:03:09.183Z,11.63
2019-02-25T12:05:38.061Z,14.43
2019-02-25T12:08:09.587Z,11.90
2019-02-25T12:10:38.432Z,12.50
2019-02-25T12:13:06.994Z,10.87
2019-02-25T12:15:35.797Z,12.20
2019-02-25T12:18:04.435Z,15.87
2019-02-25T12:20:33.384Z,11.87
2019-02-25T12:23:01.930Z,11.53
2019-02-25T12:25:31.374Z,26.50
2019-02-25T12:27:59.936Z,15.10
2019-02-25T12:30:29.548Z,17.67
2019-02-25T12:32:58.116Z,16.93
2019-02-25T12:35:27.123Z,11.37
2019-02-25T12:37:55.683Z,13.00
2019-02-25T12:40:25.745Z,20.23
2019-02-25T12:42:54.301Z,14.60
2019-02-25T12:45:23.313Z,14.87
2019-02-25T12:47:51.920Z,16.60
2019-02-25T12:50:20.890Z,12.77
2019-02-25T12:52:49.903Z,15.60
2019-02-25T12:55:19.762Z,19.20
2019-02-25T12:57:48.323Z,16.23
2019-02-25T13:00:21.785Z,13.40
2019-02-25T13:02:50.804Z,16.20
2019-02-25T13:05:21.132Z,13.77
2019-02-25T13:07:49.759Z,18.17
2019-02-25T13:10:19.133Z,13.87
2019-02-25T13:12:47.763Z,23.60
2019-02-25T13:15:17.880Z,18.00
2019-02-25T13:17:46.616Z,15.33
2019-02-25T13:20:15.950Z,18.50
2019-02-25T13:22:45.185Z,16.33
2019-02-25T13:25:23.067Z,19.90
2019-02-25T13:27:52.535Z,17.87
2019-02-25T13:30:22.478Z,18.40
2019-02-25T13:32:51.045Z,18.00
2019-02-25T13:35:19.867Z,18.07
2019-02-25T13:37:48.751Z,17.80
2019-02-25T13:40:18.451Z,19.83
2019-02-25T13:42:47.350Z,14.50
2019-02-25T13:45:18.736Z,16.70
2019-02-25T13:47:47.260Z,13.50
2019-02-25T13:50:17.371Z,12.67
2019-02-25T13:52:48.509Z,13.90
2019-02-25T13:55:23.689Z,16.30
2019-02-25T13:57:52.238Z,10.70
2019-02-25T14:00:25.758Z,21.17
2019-02-25T14:02:54.745Z,15.43
2019-02-25T14:05:23.959Z,12.83
2019-02-25T14:07:53.798Z,14.83
2019-02-25T14:10:22.760Z,13.10
2019-02-25T14:12:51.387Z,12.50
2019-02-25T14:15:22.995Z,10.47
2019-02-25T14:17:51.879Z,14.87
2019-02-25T14:20:22.214Z,8.77
2019-02-25T14:22:50.837Z,11.27
2019-02-25T14:25:23.068Z,16.40
2019-02-25T14:27:51.936Z,15.53
2019-02-25T14:30:23.528Z,11.50
2019-02-25T14:32:53.509Z,19.20
2019-02-25T14:35:27.873Z,7.47
2019-02-25T14:38:05.049Z,15.03
2019-02-25T14:40:31.577Z,8.93
2019-02-25T14:42:59.951Z,13.37
2019-02-25T14:45:31.642Z,16.03
2019-02-25T14:48:02.475Z,9.10
2019-02-25T14:50:30.825Z,10.10
2019-02-25T14:53:00.715Z,14.13
2019-02-25T14:55:30.228Z,14.87
2019-02-25T14:58:02.198Z,13.57
2019-02-25T15:00:34.407Z,17.17
2019-02-25T15:03:00.508Z,10.63
2019-02-25T15:05:29.487Z,15.07
2019-02-25T15:07:58.440Z,11.30
2019-02-25T15:10:29.667Z,15.53
2019-02-25T15:12:59.201Z,13.80
2019-02-25T15:15:28.327Z,15.60
2019-02-25T15:17:57.329Z,14.50
2019-02-25T15:20:28.801Z,13.73
2019-02-25T15:22:56.512Z,15.97
2019-02-25T15:25:29.219Z,19.37
2019-02-25T15:27:56.129Z,21.40
2019-02-25T15:30:30.848Z,13.70
2019-02-25T15:33:00.574Z,13.67
2019-02-25T15:35:32.373Z,13.90
2019-02-25T15:38:00.754Z,13.27
2019-02-25T15:40:29.972Z,15.13
2019-02-25T15:43:04.139Z,18.17
2019-02-25T15:45:35.424Z,13.60
2019-02-25T15:48:06.806Z,15.20
2019-02-25T15:50:35.727Z,11.20
2019-02-25T15:53:09.920Z,17.77
2019-02-25T15:55:39.076Z,18.40
2019-02-25T15:58:08.751Z,13.40
2019-02-25T16:00:38.457Z,13.20
2019-02-25T16:03:09.105Z,21.83
2019-02-25T16:05:38.739Z,27.60
2019-02-25T16:08:09.383Z,17.80
2019-02-25T16:10:38.538Z,15.77
2019-02-25T16:13:11.217Z,14.33
2019-02-25T16:15:38.343Z,16.00
2019-02-25T16:18:13.641Z,19.00
2019-02-25T16:20:45.948Z,14.40
2019-02-25T16:23:12.990Z,16.27
2019-02-25T16:25:42.154Z,22.80
2019-02-25T16:28:14.433Z,18.23
2019-02-25T16:30:42.430Z,15.40
2019-02-25T16:33:14.342Z,17.53
2019-02-25T16:35:43.546Z,19.07
2019-02-25T16:38:13.013Z,20.73
2019-02-25T16:40:42.020Z,13.50
2019-02-25T16:43:12.643Z,17.20
2019-02-25T16:45:43.939Z,14.97
2019-02-25T16:48:11.925Z,24.93
2019-02-25T16:50:42.168Z,25.20
2019-02-25T16:53:14.854Z,17.07
2019-02-25T16:55:42.790Z,14.83
2019-02-25T16:58:13.387Z,25.87
2019-02-25T17:00:42.779Z,26.40
2019-02-25T17:03:13.853Z,18.83
2019-02-25T17:05:44.945Z,20.30
2019-02-25T17:08:14.758Z,18.83
2019-02-25T17:10:43.338Z,21.77
2019-02-25T17:13:13.079Z,25.63
2019-02-25T17:15:45.973Z,23.67
2019-02-25T17:18:15.178Z,24.73
2019-02-25T17:20:45.044Z,16.40
2019-02-25T17:23:13.876Z,21.67
2019-02-25T17:25:43.599Z,28.20
2019-02-25T17:28:17.012Z,25.00
2019-02-25T17:30:44.981Z,34.50
2019-02-25T17:33:14.826Z,19.23
2019-02-25T17:35:45.306Z,20.10
2019-02-25T17:38:14.136Z,17.63
2019-02-25T17:40:43.053Z,16.60
2019-02-25T17:43:13.373Z,18.93
2019-02-25T17:45:42.481Z,21.67
2019-02-25T17:48:13.458Z,27.17
2019-02-25T17:50:41.872Z,19.57
2019-02-25T17:53:10.614Z,30.43
2019-02-25T17:55:39.361Z,28.43
2019-02-25T17:58:10.817Z,24.33
2019-02-25T18:00:44.347Z,20.33
2019-02-25T18:03:14.965Z,18.67
2019-02-25T18:05:43.618Z,23.43
2019-02-25T18:08:14.892Z,23.03
2019-02-25T18:10:43.649Z,22.13
2019-02-25T18:13:13.846Z,15.83
2019-02-25T18:15:44.971Z,22.57
2019-02-25T18:18:15.169Z,19.20
2019-02-25T18:20:44.020Z,20.03
2019-02-25T18:23:13.068Z,25.50
2019-02-25T18:25:42.239Z,19.90
2019-02-25T18:28:12.659Z,24.30
2019-02-25T18:30:41.949Z,24.73
2019-02-25T18:33:11.271Z,25.60
2019-02-25T18:35:41.623Z,29.87
2019-02-25T18:38:10.666Z,22.23
2019-02-25T18:40:41.352Z,21.27
2019-02-25T18:43:10.093Z,26.27
2019-02-25T18:45:41.022Z,26.10
2019-02-25T18:48:09.971Z,21.93
2019-02-25T18:50:39.601Z,27.70
2019-02-25T18:53:08.927Z,28.20
2019-02-25T18:55:37.891Z,19.53
2019-02-25T18:58:10.139Z,22.53
2019-02-25T19:00:42.409Z,26.80
2019-02-25T19:03:11.465Z,21.97
2019-02-25T19:05:40.180Z,20.97
2019-02-25T19:08:22.845Z,24.60
2019-02-25T19:10:52.696Z,30.90
2019-02-25T19:13:23.349Z,17.40
2019-02-25T19:15:53.144Z,23.03
2019-02-25T19:18:23.022Z,19.67
2019-02-25T19:20:51.679Z,27.47
2019-02-25T19:23:20.805Z,22.80
2019-02-25T19:25:49.478Z,28.23
2019-02-25T19:28:19.667Z,21.40
2019-02-25T19:30:50.678Z,21.50
2019-02-25T19:33:20.349Z,27.60
2019-02-25T19:35:49.372Z,21.83
2019-02-25T19:38:18.531Z,24.63
2019-02-25T19:40:51.973Z,22.80
2019-02-25T19:43:18.204Z,21.43
2019-02-25T19:45:46.856Z,19.07
2019-02-25T19:48:28.228Z,20.90
2019-02-25T19:50:54.469Z,27.30
2019-02-25T19:53:24.166Z,23.20
2019-02-25T19:55:53.763Z,23.70
2019-02-25T19:58:24.183Z,21.60
2019-02-25T20:00:56.929Z,23.03
2019-02-25T20:03:24.046Z,20.57
2019-02-25T20:05:54.506Z,34.90
2019-02-25T20:08:24.900Z,23.70
2019-02-25T20:10:54.826Z,20.00
2019-02-25T20:13:23.904Z,25.03
2019-02-25T20:15:53.234Z,21.53
2019-02-25T20:18:22.309Z,25.10
2019-02-25T20:20:51.412Z,22.60
2019-02-25T20:23:22.274Z,21.77
2019-02-25T20:25:51.131Z,32.30
2019-02-25T20:28:22.342Z,28.80
2019-02-25T20:30:53.841Z,21.13
2019-02-25T20:33:24.244Z,19.83
2019-02-25T20:35:54.015Z,19.03
2019-02-25T20:38:26.859Z,23.10
2019-02-25T20:40:55.595Z,28.43
2019-02-25T20:43:25.936Z,25.50
2019-02-25T20:45:56.359Z,20.07
2019-02-25T20:48:27.346Z,19.23
2019-02-25T20:50:55.639Z,24.57
2019-02-25T20:53:25.118Z,27.50
2019-02-25T20:55:56.520Z,29.13
2019-02-25T20:58:25.661Z,18.67
2019-02-25T21:00:54.286Z,25.13
2019-02-25T21:03:23.587Z,26.83
2019-02-25T21:05:53.224Z,22.70
2019-02-25T21:08:23.505Z,20.43
2019-02-25T21:10:52.212Z,36.70
2019-02-25T21:13:22.054Z,20.97
2019-02-25T21:15:51.569Z,20.10
2019-02-25T21:18:22.299Z,28.97
2019-02-25T21:20:51.494Z,40.47
2019-02-25T21:23:20.630Z,20.37
2019-02-25T21:25:53.475Z,19.23
2019-02-25T21:28:19.983Z,21.20
2019-02-25T21:30:50.536Z,28.37
2019-02-25T21:33:19.894Z,23.60
2019-02-25T21:35:49.675Z,22.83
2019-02-25T21:38:19.530Z,26.57
2019-02-25T21:40:50.442Z,24.73
2019-02-25T21:43:21.005Z,21.77
2019-02-25T21:45:54.234Z,22.60
2019-02-25T21:48:25.095Z,26.67
2019-02-25T21:50:52.834Z,23.93
2019-02-25T21:53:21.745Z,24.40
2019-02-25T21:55:51.150Z,20.70
2019-02-25T21:58:23.094Z,31.20
2019-02-25T22:00:51.466Z,24.17
2019-02-25T22:03:21.680Z,29.90
2019-02-25T22:05:53.252Z,28.73
2019-02-25T22:08:24.131Z,26.53
2019-02-25T22:10:51.328Z,22.37
2019-02-25T22:13:20.867Z,24.73
2019-02-25T22:15:49.732Z,27.43
2019-02-25T22:18:18.295Z,18.37
2019-02-25T22:20:49.201Z,20.50
2019-02-25T22:23:17.709Z,23.17
2019-02-25T22:25:46.508Z,25.20
2019-02-25T22:28:15.077Z,22.47
2019-02-25T22:30:45.171Z,21.87
2019-02-25T22:33:24.986Z,21.00
2019-02-25T22:35:46.950Z,24.53
2019-02-25T22:38:14.944Z,25.60
2019-02-25T22:40:43.752Z,28.23
2019-02-25T22:43:14.071Z,24.03
2019-02-25T22:45:42.712Z,22.30
2019-02-25T22:48:13.601Z,21.13
2019-02-25T22:50:42.167Z,24.90
2019-02-25T22:53:11.253Z,21.17
2019-02-25T22:55:44.289Z,27.03
2019-02-25T22:58:10.950Z,29.13
2019-02-25T23:00:47.704Z,22.07
2019-02-25T23:03:18.466Z,20.73
2019-02-25T23:05:48.700Z,27.17
2019-02-25T23:08:18.085Z,32.70
2019-02-25T23:10:49.359Z,23.23
2019-02-25T23:13:20.054Z,20.20
2019-02-25T23:15:49.575Z,21.27
2019-02-25T23:18:21.974Z,28.47
2019-02-25T23:20:50.414Z,24.43
2019-02-25T23:23:21.357Z,24.80
2019-02-25T23:25:51.489Z,22.50
2019-02-25T23:28:22.420Z,20.97
2019-02-25T23:30:50.777Z,28.83
2019-02-25T23:33:22.022Z,20.70
2019-02-25T23:35:51.318Z,21.83
2019-02-25T23:38:20.386Z,21.93
2019-02-25T23:40:49.044Z,23.57
2019-02-25T23:43:18.966Z,22.17
2019-02-25T23:45:47.723Z,24.13
2019-02-25T23:48:16.560Z,23.23
2019-02-25T23:50:45.167Z,25.27
2019-02-25T23:53:14.140Z,30.00
2019-02-25T23:55:45.126Z,26.33
2019-02-25T23:58:14.684Z,25.17
